createdAt,value
2022-08-25T00:03:26.000Z,22.03
2022-08-25T00:08:21.000Z,21.64
2022-08-25T00:13:13.000Z,21.29
2022-08-25T00:18:08.000Z,21.25
2022-08-25T00:23:02.000Z,20.97
2022-08-25T00:27:56.000Z,20.97
2022-08-25T00:32:51.000Z,20.82
2022-08-25T00:37:46.000Z,20.78
2022-08-25T00:42:41.000Z,20.83
2022-08-25T00:47:35.000Z,21.03
2022-08-25T00:52:30.000Z,21.89
2022-08-25T00:57:25.000Z,21.83
2022-08-25T01:02:20.000Z,21.41
2022-08-25T01:07:15.000Z,21.25
2022-08-25T01:12:09.000Z,21
2022-08-25T01:17:04.000Z,21.08
2022-08-25T01:21:59.000Z,20.97
2022-08-25T01:26:52.000Z,20.9
2022-08-25T01:31:47.000Z,20.48
2022-08-25T01:36:42.000Z,20.16
2022-08-25T01:41:36.000Z,20.25
2022-08-25T01:46:31.000Z,20.16
2022-08-25T01:51:25.000Z,19.87
2022-08-25T01:56:21.000Z,19.98
2022-08-25T02:01:14.000Z,19.78
2022-08-25T02:06:08.000Z,19.69
2022-08-25T02:11:02.000Z,19.67
2022-08-25T02:15:56.000Z,19.8
2022-08-25T02:20:51.000Z,19.56
2022-08-25T02:25:45.000Z,19.76
2022-08-25T02:30:39.000Z,19.83
2022-08-25T02:35:34.000Z,19.72
2022-08-25T02:40:29.000Z,19.51
2022-08-25T02:45:23.000Z,19.41
2022-08-25T02:50:18.000Z,19.4
2022-08-25T02:55:13.000Z,19.37
2022-08-25T03:00:07.000Z,19.35
2022-08-25T03:05:02.000Z,19.29
2022-08-25T03:09:56.000Z,19.34
2022-08-25T03:14:50.000Z,19.46
2022-08-25T03:19:45.000Z,19.11
2022-08-25T03:24:39.000Z,18.97
2022-08-25T03:29:34.000Z,18.81
2022-08-25T03:34:28.000Z,18.75
2022-08-25T03:39:23.000Z,18.72
2022-08-25T03:44:18.000Z,18.53
2022-08-25T03:49:11.000Z,18.43
2022-08-25T03:54:03.000Z,18.33
2022-08-25T03:58:56.000Z,18.32
2022-08-25T04:03:53.000Z,18.25
2022-08-25T04:08:44.000Z,18.2
2022-08-25T04:13:38.000Z,18.29
2022-08-25T04:18:33.000Z,18.29
2022-08-25T04:23:26.000Z,18.06
2022-08-25T04:28:21.000Z,18.06
2022-08-25T04:33:15.000Z,18.03
2022-08-25T04:38:10.000Z,18.07
2022-08-25T04:43:05.000Z,17.77
2022-08-25T04:48:00.000Z,18.08
2022-08-25T04:52:54.000Z,18.21
2022-08-25T04:57:49.000Z,18.21
2022-08-25T05:02:43.000Z,18.3
2022-08-25T05:07:37.000Z,18.39
2022-08-25T05:12:32.000Z,18.53
2022-08-25T05:17:27.000Z,18.75
2022-08-25T05:22:22.000Z,18.98
2022-08-25T05:27:17.000Z,19.06
2022-08-25T05:32:12.000Z,19.18
2022-08-25T05:37:06.000Z,19.51
2022-08-25T05:42:01.000Z,19.88
2022-08-25T05:46:56.000Z,20.02
2022-08-25T05:51:50.000Z,20.33
2022-08-25T05:56:44.000Z,20.75
2022-08-25T06:01:39.000Z,21.05
2022-08-25T06:06:37.000Z,21.23
2022-08-25T06:11:29.000Z,21.56
2022-08-25T06:16:24.000Z,21.91
2022-08-25T06:21:19.000Z,22.07
2022-08-25T06:26:14.000Z,22.3
2022-08-25T06:31:09.000Z,22.57
2022-08-25T06:36:03.000Z,22.81
2022-08-25T06:40:58.000Z,23.06
2022-08-25T06:45:53.000Z,23.23
2022-08-25T06:50:48.000Z,23.42
2022-08-25T06:55:43.000Z,23.56
2022-08-25T07:00:37.000Z,23.76
2022-08-25T07:05:32.000Z,23.93
2022-08-25T07:10:27.000Z,23.95
2022-08-25T07:15:22.000Z,24.33
2022-08-25T07:20:16.000Z,24.37
2022-08-25T07:25:11.000Z,24.3
2022-08-25T07:30:05.000Z,24.3
2022-08-25T07:35:00.000Z,24.42
2022-08-25T07:39:55.000Z,24.52
2022-08-25T07:44:50.000Z,24.8
2022-08-25T07:49:44.000Z,25.01
2022-08-25T07:54:39.000Z,25.25
2022-08-25T07:59:34.000Z,25.36
2022-08-25T08:04:29.000Z,25.55
2022-08-25T08:09:24.000Z,25.85
2022-08-25T08:14:19.000Z,26.18
2022-08-25T08:19:14.000Z,26.22
2022-08-25T08:24:08.000Z,26.28
2022-08-25T08:29:03.000Z,26.27
2022-08-25T08:33:57.000Z,26.39
2022-08-25T08:38:51.000Z,26.88
2022-08-25T08:43:46.000Z,27.07
2022-08-25T08:48:41.000Z,27.23
2022-08-25T08:53:36.000Z,27.5
2022-08-25T08:58:30.000Z,27.5
2022-08-25T09:03:24.000Z,27.8
2022-08-25T09:08:19.000Z,27.95
2022-08-25T09:13:12.000Z,27.93
2022-08-25T09:18:10.000Z,28.47
2022-08-25T09:23:00.000Z,28.7
2022-08-25T09:27:55.000Z,28.79
2022-08-25T09:32:49.000Z,30.25
2022-08-25T09:37:45.000Z,32.58
2022-08-25T09:42:40.000Z,32.41
2022-08-25T09:47:37.000Z,34.23
2022-08-25T09:52:33.000Z,33.27
2022-08-25T09:57:28.000Z,33.27
2022-08-25T10:02:23.000Z,34.21
2022-08-25T10:07:18.000Z,34.66
2022-08-25T10:12:13.000Z,33.6
2022-08-25T10:17:08.000Z,34.24
2022-08-25T10:22:03.000Z,33.58
2022-08-25T10:26:58.000Z,34.5
2022-08-25T10:31:53.000Z,34.42
2022-08-25T10:36:48.000Z,36.02
2022-08-25T10:41:43.000Z,35.86
2022-08-25T10:46:38.000Z,36.07
2022-08-25T10:51:33.000Z,34.93
2022-08-25T10:56:27.000Z,35.61
2022-08-25T11:01:20.000Z,37.84
2022-08-25T11:06:16.000Z,36.6
2022-08-25T11:11:11.000Z,36.7
2022-08-25T11:16:03.000Z,36.73
2022-08-25T11:20:58.000Z,37.63
2022-08-25T11:25:53.000Z,36.79
2022-08-25T11:30:48.000Z,38.23
2022-08-25T11:35:42.000Z,36.2
2022-08-25T11:40:37.000Z,36.9
2022-08-25T11:45:32.000Z,35.39
2022-08-25T11:50:26.000Z,37.45
2022-08-25T11:55:21.000Z,38.35
2022-08-25T12:00:17.000Z,36.6
2022-08-25T12:10:05.000Z,35.88
2022-08-25T12:14:59.000Z,37.7
2022-08-25T12:19:54.000Z,37.7
2022-08-25T12:24:48.000Z,32.45
2022-08-25T12:29:41.000Z,36.18
2022-08-25T12:34:36.000Z,39.19
2022-08-25T12:39:32.000Z,40.99
2022-08-25T12:44:28.000Z,41.29
2022-08-25T12:49:23.000Z,42.75
2022-08-25T12:54:19.000Z,37.81
2022-08-25T13:04:06.000Z,39.67
2022-08-25T13:09:00.000Z,34.92
2022-08-25T13:13:54.000Z,33.38
2022-08-25T13:18:47.000Z,37.78
2022-08-25T13:23:43.000Z,40.35
2022-08-25T13:28:37.000Z,40.55
2022-08-25T13:33:33.000Z,40.12
2022-08-25T13:38:28.000Z,36.55
2022-08-25T13:43:22.000Z,37.97
2022-08-25T13:48:16.000Z,34.43
2022-08-25T13:53:09.000Z,33.95
2022-08-25T13:58:03.000Z,35.25
2022-08-25T14:02:57.000Z,33.96
2022-08-25T14:07:51.000Z,36.84
2022-08-25T14:12:47.000Z,39.52
2022-08-25T14:17:43.000Z,38.89
2022-08-25T14:22:36.000Z,38.42
2022-08-25T14:27:31.000Z,40.99
2022-08-25T14:32:27.000Z,39.18
2022-08-25T14:37:21.000Z,35.45
2022-08-25T14:42:14.000Z,33.44
2022-08-25T14:47:07.000Z,33.75
2022-08-25T14:52:01.000Z,35.32
2022-08-25T14:56:55.000Z,33.4
2022-08-25T15:01:48.000Z,36.56
2022-08-25T15:06:44.000Z,39.19
2022-08-25T15:11:39.000Z,36.28
2022-08-25T15:16:33.000Z,38.61
2022-08-25T15:21:29.000Z,41.42
2022-08-25T15:26:25.000Z,39.79
2022-08-25T15:31:20.000Z,38.05
2022-08-25T15:36:15.000Z,38.86
2022-08-25T15:41:09.000Z,40.43
2022-08-25T15:46:04.000Z,38.87
2022-08-25T15:50:59.000Z,38.85
2022-08-25T15:55:52.000Z,39.25
2022-08-25T16:00:47.000Z,38.75
2022-08-25T16:05:41.000Z,38.3
2022-08-25T16:10:36.000Z,38.63
2022-08-25T16:20:25.000Z,39.77
2022-08-25T16:25:19.000Z,35.83
2022-08-25T16:30:13.000Z,34.72
2022-08-25T16:35:05.000Z,37.63
2022-08-25T16:39:58.000Z,33.77
2022-08-25T16:44:51.000Z,32.84
2022-08-25T16:49:45.000Z,31.4
2022-08-25T16:54:38.000Z,33.27
2022-08-25T16:59:33.000Z,33.88
2022-08-25T17:04:28.000Z,33.44
2022-08-25T17:09:22.000Z,31.85
2022-08-25T17:14:16.000Z,31.26
2022-08-25T17:19:10.000Z,32.15
2022-08-25T17:24:05.000Z,34.32
2022-08-25T17:29:00.000Z,34.45
2022-08-25T17:33:55.000Z,34.64
2022-08-25T17:38:50.000Z,34.16
2022-08-25T17:43:44.000Z,32.52
2022-08-25T17:48:38.000Z,30.71
2022-08-25T17:53:33.000Z,30.38
2022-08-25T17:58:27.000Z,29.81
2022-08-25T18:03:21.000Z,29.38
2022-08-25T18:13:09.000Z,28.66
2022-08-25T18:18:04.000Z,28.38
2022-08-25T18:22:57.000Z,28.13
2022-08-25T18:27:52.000Z,27.9
2022-08-25T18:32:46.000Z,27.65
2022-08-25T18:37:41.000Z,27.25
2022-08-25T18:42:38.000Z,27.24
2022-08-25T18:47:29.000Z,26.96
2022-08-25T18:52:23.000Z,26.83
2022-08-25T18:57:18.000Z,26.7
2022-08-25T19:02:13.000Z,26.51
2022-08-25T19:07:07.000Z,26.36
2022-08-25T19:12:02.000Z,26.28
2022-08-25T19:16:56.000Z,26.22
2022-08-25T19:21:50.000Z,25.82
2022-08-25T19:26:45.000Z,25.53
2022-08-25T19:31:39.000Z,25.23
2022-08-25T19:36:34.000Z,25.14
2022-08-25T19:41:29.000Z,25.15
2022-08-25T19:46:23.000Z,25.22
2022-08-25T19:51:18.000Z,24.97
2022-08-25T19:56:11.000Z,24.78
2022-08-25T20:01:06.000Z,24.44
2022-08-25T20:06:00.000Z,24.31
2022-08-25T20:10:55.000Z,24.19
2022-08-25T20:15:50.000Z,24.03
2022-08-25T20:20:44.000Z,23.93
2022-08-25T20:25:38.000Z,23.69
2022-08-25T20:30:33.000Z,23.67
2022-08-25T20:35:28.000Z,23.62
2022-08-25T20:40:22.000Z,23.49
2022-08-25T20:45:16.000Z,23.34
2022-08-25T20:50:11.000Z,23.31
2022-08-25T20:55:04.000Z,23.07
2022-08-25T20:59:58.000Z,23.07
2022-08-25T21:04:53.000Z,23
2022-08-25T21:09:48.000Z,22.99
2022-08-25T21:14:42.000Z,22.92
2022-08-25T21:19:37.000Z,22.92
2022-08-25T21:24:32.000Z,22.93
2022-08-25T21:29:27.000Z,22.86
2022-08-25T21:34:21.000Z,22.81
2022-08-25T21:39:16.000Z,22.66
2022-08-25T21:44:10.000Z,22.49
2022-08-25T21:49:04.000Z,22.37
2022-08-25T21:53:59.000Z,22.31
2022-08-25T21:58:54.000Z,22.35
2022-08-25T22:03:48.000Z,22.19
2022-08-25T22:08:43.000Z,22.09
2022-08-25T22:13:38.000Z,21.93
2022-08-25T22:18:33.000Z,21.98
2022-08-25T22:23:27.000Z,22.05
2022-08-25T22:28:22.000Z,21.95
2022-08-25T22:33:17.000Z,21.8
2022-08-25T22:38:12.000Z,21.59
2022-08-25T22:43:06.000Z,21.41
2022-08-25T22:48:00.000Z,21.38
2022-08-25T22:52:55.000Z,21.24
2022-08-25T22:57:49.000Z,21.13
2022-08-25T23:02:44.000Z,21.02
2022-08-25T23:07:39.000Z,20.86
2022-08-25T23:12:33.000Z,20.82
2022-08-25T23:17:28.000Z,20.79
2022-08-25T23:22:22.000Z,20.7
2022-08-25T23:27:17.000Z,20.57
2022-08-25T23:32:12.000Z,20.49
2022-08-25T23:37:07.000Z,20.33
2022-08-25T23:42:01.000Z,20.09
2022-08-25T23:46:55.000Z,20.14
2022-08-25T23:51:50.000Z,20.48
2022-08-25T23:56:45.000Z,20.48
